Time;durP1;ratioP1;P1;durP2;ratioP2;P2;SDS_P1;SDS_P2;PMS_P1;PMS_P2;Temp;Humidity;BMP_temperature;BMP_pressure;BME280_temperature;BME280_humidity;BME280_pressure;Samples;Min_cycle;Max_cycle;Signal;HPM_P1;HPM_P2
2021/01/21 00:00:12;;;;;;;6.85;5.10;;;11.70;99.90;;;11.71;68.92;98321.06;5095520;28;20580;-71
2021/01/21 00:02:40;;;;;;;5.68;4.82;;;11.70;99.90;;;11.78;68.44;98341.00;5095636;28;20055;-71
2021/01/21 00:05:09;;;;;;;9.38;5.88;;;11.70;99.90;;;11.86;67.91;98356.50;5095534;28;20028;-71
2021/01/21 00:07:37;;;;;;;6.10;5.18;;;11.80;99.90;;;11.92;68.32;98314.69;5095556;28;20048;-72
2021/01/21 00:10:07;;;;;;;8.43;5.20;;;11.80;99.90;;;11.88;67.98;98418.19;5077295;28;20064;-72
2021/01/21 00:12:35;;;;;;;6.40;4.95;;;11.80;99.90;;;11.99;67.59;98326.66;5095148;28;20480;-71
2021/01/21 00:15:03;;;;;;;7.05;5.03;;;11.90;99.90;;;11.96;67.57;98299.47;5095480;28;20048;-72
2021/01/21 00:17:30;;;;;;;6.18;5.40;;;11.90;99.90;;;11.95;67.61;98313.66;5095429;28;20051;-71
2021/01/21 00:19:58;;;;;;;5.90;5.30;;;11.90;99.90;;;12.03;67.74;98279.69;5095216;28;20098;-71
2021/01/21 00:22:26;;;;;;;5.85;5.13;;;12.00;99.90;;;12.06;67.29;98282.19;5095237;28;20071;-71
2021/01/21 00:24:53;;;;;;;8.50;5.60;;;12.00;99.90;;;12.11;67.62;98262.47;5076757;28;20077;-71
2021/01/21 00:27:22;;;;;;;6.88;5.40;;;12.00;99.90;;;12.05;67.71;98278.66;5095360;28;20040;-72
2021/01/21 00:29:49;;;;;;;6.70;5.22;;;12.00;99.90;;;12.02;68.24;98284.09;5095319;28;20044;-71
2021/01/21 00:32:17;;;;;;;8.40;5.45;;;12.00;99.90;;;11.94;68.51;98307.50;5094894;28;20036;-71
2021/01/21 00:34:45;;;;;;;7.18;5.78;;;12.00;99.90;;;12.02;68.83;98251.50;5095176;28;20161;-71
2021/01/21 00:37:12;;;;;;;9.25;5.22;;;12.00;99.90;;;11.91;70.55;98273.22;5076579;28;20106;-72
2021/01/21 00:39:40;;;;;;;9.68;5.40;;;11.90;99.90;;;11.74;72.19;98225.56;5094674;28;20048;-71
2021/01/21 00:42:07;;;;;;;7.60;5.68;;;11.70;99.90;;;11.60;73.79;98170.66;5095322;28;20789;-71
2021/01/21 00:44:35;;;;;;;10.15;5.72;;;11.60;99.90;;;11.47;75.75;98243.69;5094945;28;20052;-71
2021/01/21 00:47:03;;;;;;;7.20;5.22;;;11.50;99.90;;;11.41;76.40;98199.00;5094775;28;20074;-69
2021/01/21 00:49:31;;;;;;;9.90;5.88;;;11.40;99.90;;;11.20;77.46;98181.56;5094852;28;20090;-71
2021/01/21 00:51:58;;;;;;;7.57;5.38;;;11.20;99.90;;;11.19;78.43;98192.22;5094801;28;20071;-71
2021/01/21 00:54:26;;;;;;;7.93;5.28;;;11.10;99.90;;;11.12;78.81;98185.50;5076907;28;20503;-71
2021/01/21 00:56:53;;;;;;;8.88;5.97;;;11.10;99.90;;;11.08;78.91;98243.00;5076463;28;20135;-72
2021/01/21 00:59:21;;;;;;;8.57;6.07;;;11.00;99.90;;;11.05;79.38;98161.16;5094898;28;20055;-70
2021/01/21 01:01:49;;;;;;;6.70;5.43;;;11.00;99.90;;;11.14;78.70;98170.41;5094686;28;20072;-71
2021/01/21 01:04:17;;;;;;;7.55;6.03;;;11.10;99.90;;;11.15;78.40;98154.47;5076311;28;20074;-71
2021/01/21 01:06:45;;;;;;;7.57;5.30;;;11.10;99.90;;;11.20;77.58;98148.94;5094412;28;20047;-71
2021/01/21 01:09:12;;;;;;;8.75;6.22;;;11.20;99.90;;;11.26;77.14;98148.63;5076404;28;20074;-71
2021/01/21 01:11:40;;;;;;;8.93;5.60;;;11.20;99.90;;;11.32;77.32;98143.91;5076390;28;20106;-71
2021/01/21 01:14:08;;;;;;;7.43;5.53;;;11.20;99.90;;;11.32;77.06;98143.91;5076033;28;20135;-71
2021/01/21 01:16:35;;;;;;;9.63;5.40;;;11.30;99.90;;;11.38;76.66;98082.69;5094471;28;20047;-71
2021/01/21 01:19:09;;;;;;;9.65;5.82;;;11.30;99.90;;;11.48;76.13;98070.69;5076142;28;20048;-70
2021/01/21 01:21:38;;;;;;;7.43;5.38;;;11.40;99.90;;;11.54;75.92;98096.84;5076225;28;20566;-71
2021/01/21 01:24:06;;;;;;;5.80;5.07;;;11.50;99.90;;;11.64;74.71;98086.63;5076411;28;20114;-72
2021/01/21 01:26:39;;;;;;;5.78;5.18;;;11.50;99.90;;;11.64;74.15;98095.44;5075948;28;20048;-71
2021/01/21 01:29:12;;;;;;;5.65;5.10;;;11.60;99.90;;;11.79;74.01;98073.47;5076055;28;20040;-70
2021/01/21 01:31:42;;;;;;;7.22;4.90;;;11.70;99.90;;;11.77;73.48;98104.47;5075773;28;20048;-71
2021/01/21 01:34:11;;;;;;;8.57;5.30;;;11.70;99.90;;;11.81;73.18;98094.56;5094006;28;20052;-71
2021/01/21 01:37:13;;;;;;;6.80;5.47;;;11.70;99.90;;;11.82;72.99;98085.69;5070213;28;20052;-71
2021/01/21 01:39:49;;;;;;;5.82;4.90;;;11.80;99.90;;;11.83;72.88;98132.41;5075590;28;20443;-70
2021/01/21 01:42:35;;;;;;;7.43;4.95;;;11.80;99.90;;;11.76;73.65;98084.22;5093974;28;20050;-71
2021/01/21 01:45:07;;;;;;;8.90;5.13;;;11.80;99.90;;;11.83;73.49;98039.72;5075365;28;20074;-71
2021/01/21 01:47:38;;;;;;;9.07;4.97;;;11.80;99.90;;;11.81;73.28;98072.53;5093691;28;20131;-70
2021/01/21 01:50:08;;;;;;;10.98;5.30;;;11.70;99.90;;;11.41;73.51;98016.41;5093440;28;20520;-71
2021/01/21 01:52:41;;;;;;;7.60;5.43;;;11.80;99.90;;;11.83;72.63;98034.41;5075061;28;20047;-72
2021/01/21 01:55:21;;;;;;;8.40;4.80;;;11.80;99.90;;;11.87;73.10;98027.16;5075485;28;20052;-71
2021/01/21 01:58:05;;;;;;;7.35;5.43;;;11.80;99.90;;;11.88;73.07;98002.41;5093362;28;20430;-71
2021/01/21 02:00:46;;;;;;;7.72;5.10;;;11.80;99.90;;;11.86;73.17;98047.50;5075069;28;20048;-70
2021/01/21 02:03:13;;;;;;;5.55;5.03;;;11.80;99.90;;;11.83;73.92;98023.00;5093009;28;20052;-70
2021/01/21 02:05:55;;;;;;;;;;;11.80;99.90;;;11.74;74.28;98005.81;5075559;28;20139;-70
2021/01/21 02:08:24;;;;;;;7.90;5.22;;;11.70;99.90;;;11.71;74.39;98062.41;5075040;28;19919;-72
2021/01/21 02:10:53;;;;;;;7.47;5.03;;;11.70;99.90;;;11.78;74.58;98058.53;5074826;28;20087;-71
2021/01/21 02:13:49;;;;;;;6.78;4.80;;;11.70;99.90;;;11.63;75.03;97994.94;5074645;28;20047;-72
2021/01/21 02:16:39;;;;;;;7.82;5.28;;;11.60;99.90;;;11.71;74.80;97979.53;5074146;28;20143;-71
2021/01/21 02:20:02;;;;;;;6.80;5.43;;;11.60;99.90;;;11.50;75.32;97962.97;5075108;28;20051;-72
2021/01/21 02:23:16;;;;;;;6.97;4.65;;;11.50;99.90;;;11.58;75.55;97957.25;5093009;28;20048;-71
2021/01/21 02:25:51;;;;;;;5.72;4.82;;;11.50;99.90;;;11.61;75.33;97930.63;5074990;28;20139;-71
2021/01/21 02:28:52;;;;;;;5.85;5.03;;;11.60;99.90;;;11.72;75.54;97933.56;5074762;28;20048;-72
2021/01/21 02:32:03;;;;;;;5.65;4.70;;;11.60;99.90;;;11.75;75.59;97984.53;5092751;28;20505;-70
2021/01/21 02:34:40;;;;;;;7.22;4.60;;;11.70;99.90;;;11.79;75.46;97983.44;5073299;28;20088;-71
2021/01/21 02:37:19;;;;;;;7.60;5.07;;;11.70;99.90;;;11.80;75.68;97989.59;5092842;28;20076;-70
2021/01/21 02:40:01;;;;;;;7.40;5.03;;;11.70;99.90;;;11.73;75.82;97954.66;5074240;28;20044;-70
2021/01/21 02:42:45;;;;;;;5.93;5.00;;;11.70;99.90;;;11.79;76.49;97933.13;5074391;28;20058;-71
2021/01/21 02:45:17;;;;;;;7.35;5.47;;;11.70;99.90;;;11.87;78.20;97953.00;5074560;28;20056;-71
2021/01/21 02:47:49;;;;;;;8.45;4.75;;;11.70;99.90;;;11.68;79.87;97935.53;5074225;28;20459;-71
2021/01/21 02:50:18;;;;;;;8.18;5.57;;;11.60;99.90;;;11.57;80.83;97960.84;5074111;28;20052;-71
2021/01/21 02:52:53;;;;;;;7.00;5.30;;;11.50;99.90;;;11.49;81.58;97940.09;5074391;28;20417;-70
2021/01/21 02:55:26;;;;;;;6.82;5.18;;;11.40;99.90;;;11.44;82.64;97951.88;5074097;28;20134;-71
2021/01/21 02:58:07;;;;;;;7.13;4.85;;;11.30;99.90;;;11.46;83.18;97956.13;5074367;28;20052;-71
2021/01/21 03:00:38;;;;;;;7.03;4.78;;;11.30;99.90;;;11.41;83.71;97949.38;5092307;28;20044;-70
2021/01/21 03:03:15;;;;;;;7.15;5.65;;;11.20;99.90;;;11.17;84.20;97895.19;5074175;28;20138;-70
2021/01/21 03:05:53;;;;;;;10.32;5.63;;;11.20;99.90;;;11.30;85.61;98031.16;5073991;28;20063;-70
2021/01/21 03:08:21;;;;;;;13.73;5.30;;;11.20;99.90;;;10.39;83.70;98086.03;5074042;28;20070;-70
2021/01/21 03:10:49;;;;;;;20.58;5.68;;;10.60;99.90;;;9.82;82.72;98052.63;5092098;28;20052;-70
2021/01/21 03:13:19;;;;;;;18.00;6.13;;;9.90;99.90;;;9.46;82.74;98115.00;5074007;28;20067;-70
2021/01/21 03:15:50;;;;;;;19.52;5.32;;;9.50;99.90;;;9.23;82.11;98041.31;5073965;28;20051;-70
2021/01/21 03:18:20;;;;;;;14.55;5.28;;;9.20;99.90;;;9.06;81.75;98088.63;5074085;28;20045;-71
2021/01/21 03:20:49;;;;;;;22.45;5.53;;;9.00;99.90;;;8.97;83.24;98089.91;5074268;28;20476;-70
2021/01/21 03:23:26;;;;;;;16.98;6.18;;;8.90;99.90;;;8.99;82.19;98053.78;5073937;28;20101;-70
2021/01/21 03:26:02;;;;;;;14.55;6.05;;;8.90;99.90;;;8.94;81.77;98058.38;5074786;28;20052;-71
2021/01/21 03:28:31;;;;;;;20.88;5.93;;;8.80;99.90;;;8.93;81.43;98095.34;5077841;28;20043;-70
2021/01/21 03:30:58;;;;;;;26.05;6.35;;;8.80;99.90;;;8.86;81.27;98086.00;5077978;28;20047;-71
2021/01/21 03:33:27;;;;;;;18.20;6.07;;;8.70;99.90;;;8.82;81.08;98095.81;5078047;28;20036;-71
2021/01/21 03:35:58;;;;;;;25.13;6.78;;;8.70;99.90;;;8.78;80.94;98120.59;5078048;28;20036;-70
2021/01/21 03:38:27;;;;;;;28.58;5.93;;;8.70;99.90;;;8.83;81.25;98113.34;5077861;28;20093;-70
2021/01/21 03:41:13;;;;;;;28.13;7.07;;;8.70;99.90;;;8.91;80.94;98098.06;5095907;28;20181;-70
2021/01/21 03:43:44;;;;;;;21.60;6.35;;;8.80;99.90;;;8.78;80.15;98139.03;5077984;28;20501;-70
2021/01/21 03:46:17;;;;;;;23.85;6.60;;;8.70;99.90;;;8.80;80.06;98133.69;5077624;28;20072;-70
2021/01/21 03:48:44;;;;;;;20.38;6.78;;;8.70;99.90;;;8.88;79.55;98153.53;5077512;28;20052;-71
2021/01/21 03:51:31;;;;;;;25.38;7.22;;;8.70;99.90;;;8.80;78.70;98160.03;5095692;28;20500;-70
2021/01/21 03:54:26;;;;;;;25.67;6.70;;;8.70;99.90;;;8.74;78.73;98163.78;5077483;28;20047;-70
2021/01/21 03:56:54;;;;;;;19.15;6.35;;;8.70;99.90;;;8.70;78.34;98175.38;5077425;28;20048;-70
2021/01/21 03:59:22;;;;;;;26.05;6.45;;;8.60;99.90;;;8.67;77.94;98190.44;5077447;28;20401;-70
2021/01/21 04:01:54;;;;;;;28.15;7.13;;;8.60;99.90;;;8.70;77.89;98177.13;5077303;28;20056;-70
2021/01/21 04:04:23;;;;;;;26.90;6.85;;;8.60;99.90;;;8.56;77.00;98208.44;5077411;28;20473;-70
2021/01/21 04:06:52;;;;;;;25.02;7.65;;;8.50;99.90;;;8.61;76.69;98166.97;5095565;28;20409;-70
2021/01/21 04:09:27;;;;;;;23.73;6.88;;;8.50;99.90;;;8.52;76.25;98249.84;5077306;28;20071;-70
2021/01/21 04:12:18;;;;;;;19.40;5.85;;;8.50;99.90;;;8.58;75.99;98240.84;5079518;28;20060;-70
2021/01/21 04:14:45;;;;;;;25.85;7.57;;;8.50;99.90;;;8.56;75.98;98258.47;5095402;28;20481;-70
2021/01/21 04:17:13;;;;;;;20.13;6.90;;;8.40;99.90;;;8.59;75.22;98230.28;5077230;28;20135;-70
2021/01/21 04:19:43;;;;;;;22.13;6.45;;;8.50;99.90;;;8.53;74.94;98269.16;5077182;28;20083;-70
2021/01/21 04:22:12;;;;;;;25.08;6.05;;;8.40;99.90;;;8.53;75.21;98270.00;5077061;28;20139;-70
2021/01/21 04:24:40;;;;;;;18.75;6.25;;;8.50;99.90;;;8.32;75.47;98233.97;5032292;28;20574;-69
2021/01/21 04:27:17;;;;;;;28.70;7.10;;;8.40;99.90;;;8.22;75.29;98243.06;5016003;28;20513;-70
2021/01/21 04:29:49;;;;;;;23.05;7.10;;;8.40;99.90;;;8.51;75.18;98299.94;5032478;28;20060;-70
2021/01/21 04:32:19;;;;;;;27.10;7.18;;;8.40;99.90;;;8.43;75.01;98289.72;5015783;28;20065;-70
2021/01/21 04:34:48;;;;;;;20.60;6.45;;;8.40;99.90;;;8.49;75.58;98300.03;5032181;28;20042;-70
2021/01/21 04:37:16;;;;;;;26.85;7.00;;;8.40;99.90;;;8.45;75.47;98313.34;5032008;28;20103;-70
2021/01/21 04:40:08;;;;;;;22.88;6.25;;;8.40;99.90;;;8.40;75.31;98281.06;5032179;28;20053;-70
2021/01/21 04:42:37;;;;;;;33.72;7.72;;;8.30;99.90;;;8.42;75.06;98318.75;5032251;28;20490;-71
2021/01/21 04:45:09;;;;;;;30.58;7.38;;;8.30;99.90;;;8.43;75.50;98350.28;5032121;28;20045;-71
2021/01/21 04:47:46;;;;;;;31.63;7.63;;;8.40;99.90;;;8.44;75.24;98364.31;5015629;28;20092;-70
2021/01/21 04:50:24;;;;;;;23.00;7.10;;;8.30;99.90;;;8.30;75.59;98382.38;5032091;28;20049;-71
2021/01/21 04:53:14;;;;;;;28.83;7.45;;;8.20;99.90;;;8.37;74.36;98379.47;5032215;28;20060;-70
2021/01/21 04:55:57;;;;;;;18.60;6.38;;;8.30;99.90;;;8.18;73.97;98384.50;5050448;28;20075;-71
2021/01/21 04:58:55;;;;;;;13.73;6.35;;;8.20;99.90;;;8.19;73.48;98386.19;5094308;28;20044;-70
2021/01/21 05:01:36;;;;;;;25.33;6.65;;;8.20;99.90;;;8.30;73.22;98417.47;5076682;28;20476;-70
2021/01/21 05:04:06;;;;;;;32.83;6.63;;;8.20;99.90;;;8.32;73.48;98398.97;5076101;28;20052;-70
2021/01/21 05:06:54;;;;;;;24.75;7.43;;;8.20;99.90;;;8.30;73.15;98416.59;5094034;28;20087;-66
2021/01/21 05:09:26;;;;;;;23.27;7.03;;;8.20;99.90;;;8.18;73.19;98402.94;5076220;28;20141;-78
2021/01/21 05:11:56;;;;;;;20.95;6.72;;;8.20;99.90;;;8.26;72.76;98431.66;5075982;28;20129;-69
2021/01/21 05:14:26;;;;;;;20.48;6.28;;;8.20;99.90;;;8.25;72.68;98427.28;5094112;28;20052;-71
2021/01/21 05:17:27;;;;;;;21.23;6.13;;;8.10;99.90;;;8.23;72.52;98443.09;5048941;28;20051;-71
2021/01/21 05:20:34;;;;;;;17.55;6.63;;;8.20;99.90;;;8.10;72.03;98427.78;5031701;28;20045;-71
2021/01/21 05:23:25;;;;;;;16.20;5.88;;;8.10;99.90;;;8.05;71.41;98441.09;5090957;28;20142;-71
2021/01/21 05:26:06;;;;;;;16.52;5.82;;;8.00;99.90;;;7.42;71.39;98348.50;5075820;28;20106;-71
2021/01/21 05:28:52;;;;;;;16.58;5.97;;;8.00;99.90;;;8.01;71.25;98471.03;5075918;28;20051;-69
2021/01/21 05:31:38;;;;;;;18.93;5.97;;;7.90;99.90;;;7.93;71.11;98473.09;5075600;28;20048;-69
2021/01/21 05:34:08;;;;;;;17.30;6.43;;;7.90;99.90;;;7.90;71.61;98486.31;5075761;28;20052;-69
2021/01/21 05:37:01;;;;;;;20.43;6.27;;;7.80;99.90;;;7.70;71.59;98472.97;5075753;28;20079;-69
2021/01/21 05:39:39;;;;;;;17.87;6.03;;;7.80;99.90;;;7.73;71.06;98512.31;5075373;28;20048;-69
2021/01/21 05:42:28;;;;;;;19.10;6.25;;;7.70;99.90;;;7.76;71.08;98506.94;5094020;28;20428;-69
2021/01/21 05:45:20;;;;;;;22.40;6.25;;;7.70;99.90;;;7.77;71.94;98524.47;5075573;28;20520;-68
2021/01/21 05:47:56;;;;;;;16.90;5.90;;;7.70;99.90;;;7.68;71.69;98498.47;5075420;28;20135;-69
2021/01/21 05:50:26;;;;;;;18.17;6.13;;;7.60;99.90;;;7.73;71.36;98512.31;5074157;28;20054;-69
2021/01/21 05:52:55;;;;;;;20.88;6.60;;;7.60;99.90;;;7.71;71.33;98536.94;5093496;28;20048;-69
2021/01/21 05:55:24;;;;;;;18.77;6.05;;;7.60;99.90;;;7.72;70.95;98525.53;5075081;28;20163;-69
2021/01/21 05:57:55;;;;;;;14.68;5.30;;;7.60;99.90;;;7.73;71.12;98553.53;5093542;28;20048;-69
2021/01/21 06:00:26;;;;;;;21.23;6.32;;;7.60;99.90;;;7.58;71.44;98533.84;5075504;28;20059;-69
2021/01/21 06:03:02;;;;;;;22.50;7.10;;;7.60;99.90;;;7.71;71.53;98569.38;5074943;28;20083;-69
2021/01/21 06:05:52;;;;;;;31.50;7.32;;;7.60;99.90;;;7.87;71.51;98575.91;5079519;28;20056;-69
2021/01/21 06:08:23;;;;;;;27.80;7.32;;;7.70;99.90;;;7.77;72.09;98579.72;5093125;28;20052;-69
2021/01/21 06:10:51;;;;;;;20.65;7.43;;;7.70;99.90;;;7.49;72.00;98506.94;5093057;28;20051;-69
2021/01/21 06:13:21;;;;;;;24.63;7.30;;;7.70;99.90;;;7.93;72.29;98596.78;5074341;28;20056;-69
2021/01/21 06:15:50;;;;;;;23.67;6.57;;;7.80;99.90;;;7.75;72.31;98592.06;5093085;28;20138;-69
2021/01/21 06:18:17;;;;;;;20.07;6.40;;;7.70;99.90;;;7.64;71.26;98583.63;5093271;28;20448;-69
2021/01/21 06:21:19;;;;;;;14.75;6.40;;;7.60;99.90;;;7.63;70.49;98599.44;5074739;28;20628;-69
2021/01/21 06:24:02;;;;;;;18.03;5.77;;;7.50;99.90;;;7.66;70.39;98616.00;5074588;28;20048;-69
2021/01/21 06:26:46;;;;;;;22.03;6.47;;;7.50;99.90;;;7.37;70.01;98584.44;5074780;28;20059;-69
2021/01/21 06:29:17;;;;;;;20.63;7.27;;;7.40;99.90;;;7.46;69.10;98614.84;5074764;28;20060;-69
2021/01/21 06:31:50;;;;;;;23.90;7.97;;;7.40;99.90;;;7.44;69.59;98622.78;5092751;28;20402;-69
2021/01/21 06:34:23;;;;;;;21.23;7.37;;;7.40;99.90;;;7.47;69.64;98635.00;5092431;28;20080;-69
2021/01/21 06:36:53;;;;;;;20.83;6.67;;;7.40;99.90;;;7.38;69.70;98629.97;5074439;28;20105;-67
2021/01/21 06:39:26;;;;;;;;;;;7.30;99.90;;;7.31;69.39;98650.31;5093195;28;20044;-67
2021/01/21 06:41:58;;;;;;;13.03;5.93;;;7.20;99.90;;;7.28;69.46;98651.25;5092664;28;19920;-67
2021/01/21 06:44:28;;;;;;;17.00;5.97;;;7.20;99.90;;;7.32;69.30;98645.94;5092539;28;20448;-67
2021/01/21 06:46:57;;;;;;;15.53;6.30;;;7.20;99.90;;;7.29;68.77;98654.75;5092400;28;20040;-68
2021/01/21 06:49:25;;;;;;;16.03;6.53;;;7.20;99.90;;;7.35;69.04;98651.97;5092489;28;20135;-67
2021/01/21 06:51:53;;;;;;;16.27;6.10;;;7.20;99.90;;;6.62;69.07;98539.22;5092626;28;20043;-67
2021/01/21 06:54:22;;;;;;;24.30;6.73;;;7.20;99.90;;;7.30;68.69;98669.59;5092312;28;20044;-67
2021/01/21 06:56:49;;;;;;;14.43;5.00;;;7.20;99.90;;;7.31;68.93;98681.88;5092387;28;20036;-67
2021/01/21 06:59:17;;;;;;;14.20;6.23;;;7.20;99.90;;;6.95;69.37;98609.25;5092187;28;20093;-67
2021/01/21 07:01:49;;;;;;;12.97;5.83;;;7.30;99.90;;;6.88;69.12;98605.03;5091916;28;20043;-69
2021/01/21 07:04:27;;;;;;;15.87;6.23;;;7.30;99.90;;;7.32;69.55;98668.69;5092492;28;20044;-68
2021/01/21 07:07:15;;;;;;;16.00;6.37;;;7.20;99.90;;;7.23;70.04;98695.22;5092187;28;20044;-68
2021/01/21 07:09:43;;;;;;;18.63;7.10;;;7.20;99.90;;;7.24;70.38;98717.09;5092293;28;20249;-69
2021/01/21 07:12:18;;;;;;;14.00;5.95;;;7.20;99.90;;;6.61;70.37;98608.38;5092037;28;20102;-70
2021/01/21 07:14:48;;;;;;;26.20;7.00;;;7.20;99.90;;;7.31;70.64;98729.19;5092112;28;20048;-69
2021/01/21 07:17:17;;;;;;;12.80;6.23;;;7.20;99.90;;;7.24;70.89;98727.59;5092057;28;20066;-69
2021/01/21 07:19:48;;;;;;;15.73;5.97;;;7.20;99.90;;;7.27;70.88;98744.19;5092121;28;20127;-69
2021/01/21 07:22:20;;;;;;;16.67;6.30;;;7.20;99.90;;;7.15;71.02;98722.59;5092088;28;20051;-69
2021/01/21 07:24:57;;;;;;;16.23;5.90;;;7.20;99.90;;;7.25;71.09;98724.09;5092286;28;20409;-69
2021/01/21 07:27:27;;;;;;;14.83;6.53;;;7.20;99.90;;;7.25;71.47;98735.47;5092115;28;20071;-67
2021/01/21 07:30:15;;;;;;;23.00;6.10;;;7.20;99.90;;;7.27;71.40;98738.06;5073862;28;20051;-67
2021/01/21 07:32:44;;;;;;;;;;;7.20;99.90;;;7.24;71.77;98749.50;5092287;28;20406;-67
2021/01/21 07:35:45;;;;;;;17.57;6.50;;;7.20;99.90;;;7.23;71.83;98755.69;5092017;28;19924;-68
2021/01/21 07:38:49;;;;;;;;;;;7.10;99.90;;;7.34;72.39;98771.16;4993778;28;20141;-67
2021/01/21 07:41:55;;;;;;;21.53;6.80;;;7.20;99.90;;;7.15;72.42;98748.88;5009955;28;19921;-67
2021/01/21 07:44:22;;;;;;;18.33;6.60;;;7.20;99.90;;;7.32;72.18;98755.44;5071317;28;20059;-67
2021/01/21 07:46:50;;;;;;;20.93;6.47;;;7.20;99.90;;;7.32;71.87;98765.09;5091787;28;20078;-67
2021/01/21 07:49:27;;;;;;;23.37;6.50;;;7.20;99.90;;;7.40;71.64;98775.41;5091689;28;20051;-67
2021/01/21 07:52:02;;;;;;;20.63;6.40;;;7.30;99.90;;;7.47;71.42;98769.09;5091968;28;20087;-67
2021/01/21 07:54:31;;;;;;;22.87;7.27;;;7.30;99.90;;;7.00;70.87;98660.78;5091809;28;20078;-67
2021/01/21 07:57:00;;;;;;;18.10;5.53;;;7.50;99.90;;;7.64;70.88;98765.13;5091849;28;20052;-67
2021/01/21 07:59:27;;;;;;;21.20;7.22;;;7.50;99.90;;;7.72;70.66;98778.94;5091675;28;20542;-67
2021/01/21 08:01:59;;;;;;;19.48;7.13;;;7.60;99.90;;;7.25;70.31;98688.16;5091620;28;20093;-67
2021/01/21 08:04:28;;;;;;;19.05;6.15;;;7.70;99.90;;;7.95;70.23;98770.41;5091920;28;20115;-67
2021/01/21 08:06:57;;;;;;;21.40;6.43;;;7.80;99.90;;;8.11;69.61;98783.09;5091555;28;20055;-67
2021/01/21 08:09:25;;;;;;;16.95;6.53;;;7.90;99.90;;;8.23;69.30;98786.31;5091615;28;20058;-67
2021/01/21 08:11:53;;;;;;;17.40;5.82;;;8.10;99.90;;;8.42;69.24;98792.81;5091560;28;20117;-67
2021/01/21 08:14:20;;;;;;;27.05;7.32;;;8.20;99.90;;;8.53;69.23;98801.25;5094307;28;20048;-67
2021/01/21 08:17:03;;;;;;;22.40;6.53;;;8.30;99.90;;;8.64;69.24;98784.22;5095677;28;20511;-67
2021/01/21 08:19:39;;;;;;;25.30;7.88;;;8.50;99.90;;;8.82;69.59;98810.03;5095913;28;20105;-67
2021/01/21 08:22:09;;;;;;;26.67;7.85;;;8.60;99.90;;;8.81;68.82;98776.66;5095300;28;20059;-69
2021/01/21 08:24:58;;;;;;;23.30;7.57;;;8.70;99.90;;;9.13;68.28;98807.28;5095184;28;20044;-68
2021/01/21 08:27:43;;;;;;;23.38;7.32;;;8.90;99.90;;;9.10;67.11;98810.00;5095605;28;20052;-68
2021/01/21 08:30:17;;;;;;;18.92;7.13;;;9.00;99.90;;;9.25;66.87;98800.75;5077294;28;20048;-68
2021/01/21 08:32:47;;;;;;;19.85;6.85;;;9.10;99.90;;;9.10;67.08;98802.09;5095284;28;20416;-69
2021/01/21 08:35:22;;;;;;;16.92;7.25;;;9.00;99.90;;;8.69;66.93;98699.75;5094991;28;20047;-68
2021/01/21 08:37:52;;;;;;;23.48;6.88;;;9.00;99.90;;;9.34;66.54;98788.13;5095374;28;20050;-68
2021/01/21 08:40:21;;;;;;;14.00;5.47;;;9.10;99.90;;;9.33;66.12;98796.94;5095137;28;20508;-69
2021/01/21 08:42:51;;;;;;;13.82;5.45;;;9.20;99.90;;;9.48;66.05;98811.41;5095047;28;20101;-68
2021/01/21 08:45:21;;;;;;;19.35;5.68;;;9.20;99.90;;;9.72;65.18;98806.16;5094990;28;20114;-68
2021/01/21 08:47:50;;;;;;;19.98;6.00;;;9.50;99.90;;;9.83;64.79;98788.19;5094839;28;20130;-68
2021/01/21 08:50:20;;;;;;;14.88;5.72;;;9.60;99.90;;;10.06;64.42;98805.00;5094926;28;20066;-68
2021/01/21 08:53:03;;;;;;;17.23;5.10;;;9.90;99.90;;;9.79;63.91;98799.75;5094938;28;20489;-68
2021/01/21 08:55:40;;;;;;;12.18;5.53;;;9.70;99.90;;;9.96;64.03;98800.06;5094830;28;20048;-68
2021/01/21 08:58:09;;;;;;;18.85;6.50;;;9.80;99.90;;;10.03;63.52;98785.72;5094800;28;20044;-68
2021/01/21 09:00:39;;;;;;;16.85;5.40;;;9.90;99.90;;;9.73;63.88;98797.34;5076576;28;20394;-68
2021/01/21 09:03:07;;;;;;;17.52;6.32;;;9.70;99.90;;;9.35;64.73;98820.66;5094770;28;20048;-68
2021/01/21 09:05:36;;;;;;;24.42;5.97;;;9.30;99.90;;;8.98;66.24;98839.41;5094844;28;20067;-68
2021/01/21 09:08:08;;;;;;;21.10;7.55;;;8.90;99.90;;;8.79;68.04;98828.53;5094509;28;20493;-68
2021/01/21 09:10:47;;;;;;;15.95;5.43;;;8.70;99.90;;;7.92;70.67;98763.47;5094807;28;20051;-68
2021/01/21 09:13:20;;;;;;;18.75;6.45;;;8.40;99.90;;;8.31;71.60;98824.72;5094511;28;20071;-69
2021/01/21 09:15:54;;;;;;;20.85;7.03;;;8.20;99.90;;;8.75;71.94;98799.72;5094684;28;20507;-69
2021/01/21 09:18:44;;;;;;;19.85;6.70;;;8.50;99.90;;;8.72;70.79;98762.91;5094620;28;20032;-70
2021/01/21 09:21:14;;;;;;;18.20;6.53;;;8.80;99.90;;;9.44;69.93;98829.13;5094325;28;20453;-67
2021/01/21 09:23:42;;;;;;;15.77;6.28;;;9.20;99.90;;;9.79;69.12;98833.22;5094021;28;20377;-67
2021/01/21 09:26:14;;;;;;;18.90;5.70;;;9.50;99.90;;;9.87;68.29;98816.19;5094330;28;20134;-68
2021/01/21 09:28:55;;;;;;;25.77;6.03;;;9.70;99.90;;;9.95;67.48;98835.28;5076193;28;20052;-67
2021/01/21 09:31:23;;;;;;;15.95;5.90;;;9.80;99.90;;;10.10;67.29;98831.28;5093738;28;20098;-67
2021/01/21 09:33:52;;;;;;;15.68;5.43;;;9.90;99.90;;;10.32;66.81;98824.31;5093589;28;20044;-68
2021/01/21 09:36:25;;;;;;;22.92;6.20;;;10.10;99.90;;;10.23;66.40;98811.44;5094005;28;20083;-68
2021/01/21 09:38:53;;;;;;;20.27;5.90;;;10.30;99.90;;;10.61;66.79;98832.03;5093998;28;20039;-69
2021/01/21 09:41:20;;;;;;;17.40;5.93;;;10.40;99.90;;;10.70;65.88;98825.56;5093885;28;20043;-68
2021/01/21 09:43:48;;;;;;;15.82;5.47;;;10.60;99.90;;;10.79;65.80;98825.19;5094113;28;20367;-68
2021/01/21 09:46:22;;;;;;;17.02;5.50;;;10.60;99.90;;;10.95;65.23;98836.03;5075758;28;20117;-68
2021/01/21 09:48:50;;;;;;;18.70;6.05;;;10.80;99.90;;;11.04;64.83;98839.19;5075819;28;20050;-68
2021/01/21 09:51:17;;;;;;;17.83;6.05;;;10.80;99.90;;;10.97;65.36;98834.22;5093517;28;20044;-68
2021/01/21 09:53:45;;;;;;;18.23;6.03;;;10.80;99.90;;;11.05;65.37;98843.59;5093368;28;20450;-68
2021/01/21 09:56:13;;;;;;;19.48;5.88;;;10.80;99.90;;;11.03;65.26;98823.38;5075500;28;20062;-68
2021/01/21 09:58:42;;;;;;;14.35;5.22;;;10.90;99.90;;;11.00;65.43;98831.44;5074603;28;20454;-69
2021/01/21 10:01:09;;;;;;;18.83;5.72;;;10.80;99.90;;;11.05;65.38;98848.88;5093271;28;20040;-69
2021/01/21 10:03:49;;;;;;;17.98;6.25;;;10.90;99.90;;;10.88;65.89;98835.41;5093500;28;20401;-69
2021/01/21 10:06:17;;;;;;;22.50;5.80;;;10.70;99.90;;;10.76;66.29;98846.47;5093264;28;20044;-69
2021/01/21 10:08:45;;;;;;;16.60;6.07;;;10.60;99.90;;;10.63;66.42;98818.75;5092998;28;20044;-68
2021/01/21 10:11:13;;;;;;;16.63;5.75;;;10.60;99.90;;;10.66;66.88;98877.69;5074472;28;20597;-69
2021/01/21 10:13:40;;;;;;;19.65;5.85;;;10.50;99.90;;;10.65;67.54;98873.28;5093126;28;20044;-69
2021/01/21 10:16:08;;;;;;;21.30;5.95;;;10.50;99.90;;;10.29;68.15;98863.19;5093093;28;20043;-69
2021/01/21 10:18:38;;;;;;;17.25;6.43;;;10.20;99.90;;;10.25;68.77;98843.09;5092624;28;20048;-69
2021/01/21 10:21:05;;;;;;;12.55;5.30;;;10.10;99.90;;;10.20;69.59;98879.38;5074566;28;20408;-69
2021/01/21 10:23:33;;;;;;;18.45;5.90;;;10.00;99.90;;;10.03;69.27;98874.63;5092752;28;20048;-68
2021/01/21 10:26:01;;;;;;;18.63;6.40;;;9.90;99.90;;;9.75;71.33;98864.16;5093006;28;20048;-69
2021/01/21 10:28:29;;;;;;;14.30;6.63;;;9.70;99.90;;;9.78;71.62;98892.22;5092853;28;20401;-69
2021/01/21 10:30:57;;;;;;;16.20;5.65;;;9.60;99.90;;;9.62;71.67;98857.53;5092655;28;20417;-69
2021/01/21 10:33:38;;;;;;;11.15;5.18;;;9.50;99.90;;;9.45;71.49;98845.81;5092515;28;20127;-69
2021/01/21 10:36:07;;;;;;;14.60;5.43;;;9.30;99.90;;;8.99;70.47;98776.09;5092160;28;20036;-69
2021/01/21 10:38:35;;;;;;;15.52;5.20;;;9.30;99.90;;;9.59;70.73;98833.91;5092697;28;20052;-69
2021/01/21 10:41:03;;;;;;;14.27;5.88;;;9.50;99.90;;;9.62;71.31;98857.53;5092988;28;20397;-69
2021/01/21 10:43:31;;;;;;;14.57;5.30;;;9.40;99.90;;;9.46;70.45;98877.44;5092675;28;20451;-69
2021/01/21 10:45:59;;;;;;;13.30;4.32;;;9.40;99.90;;;9.50;70.88;98863.22;5092557;28;20059;-69
2021/01/21 10:48:27;;;;;;;19.00;5.05;;;9.30;99.90;;;9.53;70.84;98847.28;5092406;28;20161;-69
2021/01/21 10:50:55;;;;;;;15.98;5.43;;;9.40;99.90;;;9.80;70.58;98883.34;5092606;28;20382;-69